createdAt,value
2022-07-26T00:02:47.706Z,99662.38
2022-07-26T00:07:50.128Z,99667.38
2022-07-26T00:12:51.709Z,99676.91
2022-07-26T00:17:53.313Z,99677.03
2022-07-26T00:22:54.972Z,99687.19
2022-07-26T00:27:56.773Z,99687.78
2022-07-26T00:32:58.648Z,99694.66
2022-07-26T00:38:00.343Z,99699.41
2022-07-26T00:43:02.349Z,99698.16
2022-07-26T00:48:04.321Z,99692.22
2022-07-26T00:53:06.008Z,99712.44
2022-07-26T00:58:07.651Z,99728.25
2022-07-26T01:03:09.483Z,99734.97
2022-07-26T01:08:11.103Z,99759.22
2022-07-26T01:13:13.218Z,99775.47
2022-07-26T01:18:15.319Z,99781.09
2022-07-26T01:23:17.541Z,99767.03
2022-07-26T01:28:20.163Z,99767.84
2022-07-26T01:33:22.482Z,99790.88
2022-07-26T01:38:24.057Z,99784.75
2022-07-26T01:43:25.855Z,99772.91
2022-07-26T01:48:30.160Z,99771.16
2022-07-26T01:53:32.156Z,99761.19
2022-07-26T01:58:33.797Z,99765.94
2022-07-26T02:03:35.902Z,99759.59
2022-07-26T02:08:37.544Z,99755.94
2022-07-26T02:13:41.196Z,99759.00
2022-07-26T02:18:43.072Z,99757.84
2022-07-26T02:23:44.679Z,99773.25
2022-07-26T02:28:46.277Z,99768.69
2022-07-26T02:33:47.895Z,99769.06
2022-07-26T02:38:49.495Z,99758.91
2022-07-26T02:43:51.098Z,99771.81
2022-07-26T02:48:52.739Z,99777.09
2022-07-26T02:53:54.516Z,99789.00
2022-07-26T02:58:56.261Z,99785.69
2022-07-26T03:03:57.899Z,99794.84
2022-07-26T03:09:00.233Z,99795.50
2022-07-26T03:14:01.995Z,99809.25
2022-07-26T03:19:03.792Z,99804.69
2022-07-26T03:24:06.182Z,99802.28
2022-07-26T03:29:08.003Z,99805.44
2022-07-26T03:34:10.801Z,99797.34
2022-07-26T03:39:12.861Z,99785.44
2022-07-26T03:44:14.475Z,99793.50
2022-07-26T03:49:17.248Z,99800.03
2022-07-26T03:54:19.178Z,99790.31
2022-07-26T03:59:20.975Z,99791.72
2022-07-26T04:04:25.318Z,99796.59
2022-07-26T04:09:27.119Z,99800.59
2022-07-26T04:14:28.733Z,99797.44
2022-07-26T04:19:30.447Z,99811.69
2022-07-26T04:24:32.031Z,99805.88
2022-07-26T04:29:33.710Z,99815.16
2022-07-26T04:34:35.321Z,99817.47
2022-07-26T04:39:36.950Z,99814.97
2022-07-26T04:44:39.035Z,99826.47
2022-07-26T04:49:40.601Z,99823.75
2022-07-26T04:54:42.217Z,99833.19
2022-07-26T04:59:43.858Z,99826.09
2022-07-26T05:04:45.436Z,99830.06
2022-07-26T05:09:47.073Z,99828.47
2022-07-26T05:14:48.678Z,99829.28
2022-07-26T05:19:53.420Z,99836.28
2022-07-26T05:24:55.987Z,99830.47
2022-07-26T05:29:57.580Z,99836.00
2022-07-26T05:34:59.139Z,99842.22
2022-07-26T05:40:00.731Z,99855.91
2022-07-26T05:45:02.701Z,99856.56
2022-07-26T05:50:05.644Z,99850.91
2022-07-26T05:55:07.912Z,99851.47
2022-07-26T06:00:10.520Z,99860.28
2022-07-26T06:05:17.640Z,99869.06
2022-07-26T06:10:19.280Z,99865.75
2022-07-26T06:15:21.115Z,99870.72
2022-07-26T06:20:23.065Z,99880.41
2022-07-26T06:25:25.588Z,99878.16
2022-07-26T06:30:27.285Z,99889.47
2022-07-26T06:35:32.174Z,99881.19
2022-07-26T06:40:34.259Z,99883.97
2022-07-26T06:45:36.085Z,99893.97
2022-07-26T06:50:37.940Z,99892.00
2022-07-26T06:55:54.689Z,99892.19
2022-07-26T07:00:56.520Z,99894.06
2022-07-26T07:05:58.108Z,99893.66
2022-07-26T07:10:59.810Z,99894.75
2022-07-26T07:16:03.539Z,99903.53
2022-07-26T07:21:05.262Z,99906.22
2022-07-26T07:26:06.906Z,99901.63
2022-07-26T07:31:09.031Z,99907.53
2022-07-26T07:36:10.777Z,99907.16
2022-07-26T07:41:12.399Z,99901.03
2022-07-26T07:46:14.532Z,99893.53
2022-07-26T07:51:16.310Z,99891.69
2022-07-26T07:56:19.378Z,99890.84
2022-07-26T08:01:23.542Z,99891.66
2022-07-26T08:06:42.046Z,99890.38
2022-07-26T08:11:52.118Z,99887.56
2022-07-26T08:16:53.814Z,99898.53
2022-07-26T08:21:55.508Z,99900.84
2022-07-26T08:26:57.086Z,99893.03
2022-07-26T08:31:58.847Z,99902.63
2022-07-26T08:37:16.589Z,99911.69
2022-07-26T08:42:23.041Z,99922.00
2022-07-26T08:47:37.888Z,99925.25
2022-07-26T08:52:42.429Z,99924.50
2022-07-26T08:57:44.160Z,99919.13
2022-07-26T09:02:46.238Z,99913.06
2022-07-26T09:07:47.953Z,99925.56
2022-07-26T09:12:58.309Z,99929.69
2022-07-26T09:18:00.012Z,99929.03
2022-07-26T09:23:09.625Z,99918.69
2022-07-26T09:28:29.634Z,99920.03
2022-07-26T09:33:50.288Z,99923.75
2022-07-26T09:39:11.196Z,99928.25
2022-07-26T09:44:24.308Z,99928.41
2022-07-26T09:49:30.958Z,99920.94
2022-07-26T09:54:42.572Z,99923.09
2022-07-26T09:59:44.770Z,99920.31
2022-07-26T10:04:46.503Z,99920.03
2022-07-26T10:10:11.315Z,99913.13
2022-07-26T10:15:35.583Z,99914.59
2022-07-26T10:20:44.425Z,99908.13
2022-07-26T10:25:47.710Z,99923.00
2022-07-26T10:30:49.600Z,99911.88
2022-07-26T10:35:51.217Z,99925.72
2022-07-26T10:41:01.962Z,99921.13
2022-07-26T10:46:15.838Z,99921.81
2022-07-26T10:51:29.625Z,99922.72
2022-07-26T10:56:33.696Z,99925.88
2022-07-26T11:01:37.565Z,99915.56
2022-07-26T11:06:40.037Z,99927.75
2022-07-26T11:11:47.007Z,99916.97
2022-07-26T11:16:52.795Z,99912.56
2022-07-26T11:21:59.050Z,99915.50
2022-07-26T11:27:04.322Z,99915.47
2022-07-26T11:32:14.865Z,99921.41
2022-07-26T11:37:18.799Z,99923.38
2022-07-26T11:42:21.649Z,99917.72
2022-07-26T11:47:25.731Z,99913.25
2022-07-26T11:52:31.971Z,99915.09
2022-07-26T11:57:33.988Z,99920.56
2022-07-26T12:02:35.622Z,99927.59
2022-07-26T12:07:37.228Z,99919.69
2022-07-26T12:12:39.657Z,99915.94
2022-07-26T12:17:58.667Z,99918.34
2022-07-26T12:23:05.007Z,99914.44
2022-07-26T12:28:07.674Z,99914.19
2022-07-26T12:33:09.317Z,99912.19
2022-07-26T12:38:10.979Z,99904.66
2022-07-26T12:43:12.562Z,99898.44
2022-07-26T12:48:14.373Z,99897.53
2022-07-26T12:53:15.982Z,99904.00
2022-07-26T12:58:17.581Z,99899.28
2022-07-26T13:03:19.216Z,99902.84
2022-07-26T13:08:20.906Z,99902.25
2022-07-26T13:13:22.515Z,99901.53
2022-07-26T13:18:24.099Z,99901.03
2022-07-26T13:23:26.912Z,99912.25
2022-07-26T13:28:28.621Z,99909.22
2022-07-26T13:33:30.217Z,99916.78
2022-07-26T13:38:33.661Z,99923.13
2022-07-26T13:43:35.507Z,99924.00
2022-07-26T13:48:37.201Z,99920.28
2022-07-26T13:53:55.160Z,99928.56
2022-07-26T13:58:57.289Z,99929.34
2022-07-26T14:03:59.437Z,99928.66
2022-07-26T14:09:02.043Z,99933.03
2022-07-26T14:14:04.260Z,99922.50
2022-07-26T14:19:06.410Z,99926.34
2022-07-26T14:24:08.582Z,99922.75
2022-07-26T14:29:10.392Z,99931.38
2022-07-26T14:34:12.330Z,99929.19
2022-07-26T14:39:14.181Z,99933.88
2022-07-26T14:44:15.800Z,99936.69
2022-07-26T14:49:17.628Z,99943.19
2022-07-26T14:54:19.506Z,99938.66
2022-07-26T14:59:21.152Z,99933.34
2022-07-26T15:04:22.758Z,99939.16
2022-07-26T15:09:24.385Z,99947.72
2022-07-26T15:14:26.037Z,99945.47
2022-07-26T15:19:27.697Z,99937.72
2022-07-26T15:24:29.412Z,99950.16
2022-07-26T15:29:33.272Z,99942.94
2022-07-26T15:34:35.044Z,99941.53
2022-07-26T15:39:36.713Z,99953.03
2022-07-26T15:44:38.800Z,99965.19
2022-07-26T15:49:40.885Z,99963.84
2022-07-26T15:54:42.703Z,99971.63
2022-07-26T15:59:44.511Z,99962.25
2022-07-26T16:04:46.107Z,99970.72
2022-07-26T16:09:48.792Z,99980.47
2022-07-26T16:14:50.414Z,99971.44
2022-07-26T16:19:52.260Z,99979.84
2022-07-26T16:24:54.026Z,99975.63
2022-07-26T16:29:55.805Z,99984.69
2022-07-26T16:34:57.456Z,99995.25
2022-07-26T16:39:59.193Z,99995.88
2022-07-26T16:45:01.272Z,99994.19
2022-07-26T16:50:03.647Z,100003.88
2022-07-26T16:55:10.565Z,100004.97
2022-07-26T17:00:12.996Z,100000.47
2022-07-26T17:05:14.893Z,99993.69
2022-07-26T17:10:16.473Z,99990.13
2022-07-26T17:15:18.074Z,99999.25
2022-07-26T17:20:19.975Z,100017.34
2022-07-26T17:25:21.677Z,100002.66
2022-07-26T17:30:23.350Z,100015.22
2022-07-26T17:35:25.023Z,100015.50
2022-07-26T17:40:26.819Z,100032.84
2022-07-26T17:45:28.624Z,100029.91
2022-07-26T17:50:38.603Z,100031.06
2022-07-26T17:55:40.545Z,100027.84
2022-07-26T18:00:42.221Z,100022.03
2022-07-26T18:05:44.093Z,100027.69
2022-07-26T18:10:50.916Z,100037.63
2022-07-26T18:15:53.539Z,100036.38
2022-07-26T18:20:55.318Z,100034.28
2022-07-26T18:25:58.134Z,100033.56
2022-07-26T18:30:59.826Z,100035.09
2022-07-26T18:36:01.669Z,100033.00
2022-07-26T18:41:03.493Z,100029.84
2022-07-26T18:46:06.506Z,100037.44
2022-07-26T18:51:08.213Z,100040.78
2022-07-26T18:56:09.832Z,100050.97
2022-07-26T19:01:11.696Z,100051.72
2022-07-26T19:06:13.489Z,100053.63
2022-07-26T19:11:15.206Z,100066.66
2022-07-26T19:16:16.890Z,100060.28
2022-07-26T19:21:18.692Z,100064.19
2022-07-26T19:26:20.424Z,100065.25
2022-07-26T19:31:22.445Z,100072.13
2022-07-26T19:36:26.474Z,100087.19
2022-07-26T19:41:28.308Z,100091.94
2022-07-26T19:46:30.061Z,100088.03
2022-07-26T19:51:32.167Z,100091.47
2022-07-26T19:56:34.237Z,100094.09
2022-07-26T20:01:35.892Z,100100.13
2022-07-26T20:06:37.617Z,100104.44
2022-07-26T20:11:39.921Z,100114.47
2022-07-26T20:16:41.944Z,100114.28
2022-07-26T20:21:44.355Z,100111.41
2022-07-26T20:26:46.128Z,100110.69
2022-07-26T20:31:47.846Z,100120.34
2022-07-26T20:36:49.579Z,100113.78
2022-07-26T20:41:51.428Z,100114.13
2022-07-26T20:46:54.408Z,100112.44
2022-07-26T20:51:56.031Z,100118.81
2022-07-26T20:56:57.848Z,100125.88
2022-07-26T21:01:59.551Z,100128.66
2022-07-26T21:07:01.165Z,100130.34
2022-07-26T21:12:03.136Z,100127.22
2022-07-26T21:17:09.382Z,100138.75
2022-07-26T21:22:13.056Z,100145.91
2022-07-26T21:27:15.181Z,100142.97
2022-07-26T21:32:16.908Z,100145.91
2022-07-26T21:37:18.653Z,100146.44
2022-07-26T21:42:20.286Z,100154.44
2022-07-26T21:47:22.023Z,100159.19
2022-07-26T21:52:23.668Z,100157.06
2022-07-26T21:57:25.310Z,100149.59
2022-07-26T22:02:27.081Z,100163.25
2022-07-26T22:07:28.660Z,100161.72
2022-07-26T22:12:30.772Z,100158.13
2022-07-26T22:17:32.369Z,100162.19
2022-07-26T22:22:35.234Z,100169.25
2022-07-26T22:27:36.888Z,100174.31
2022-07-26T22:32:38.646Z,100164.59
2022-07-26T22:37:40.359Z,100166.72
2022-07-26T22:42:44.529Z,100168.63
2022-07-26T22:47:55.611Z,100163.72
2022-07-26T22:52:58.405Z,100160.59
2022-07-26T22:58:00.510Z,100166.38
2022-07-26T23:03:02.375Z,100159.53
2022-07-26T23:08:14.080Z,100170.44
2022-07-26T23:13:26.531Z,100168.25
2022-07-26T23:18:29.353Z,100173.34
2022-07-26T23:23:30.990Z,100171.25
2022-07-26T23:28:37.329Z,100176.28
2022-07-26T23:33:52.594Z,100178.28
2022-07-26T23:38:57.611Z,100168.09
2022-07-26T23:43:59.303Z,100169.75
2022-07-26T23:49:00.984Z,100174.81
2022-07-26T23:54:02.628Z,100182.84
2022-07-26T23:59:04.610Z,100178.91
